sensor_id;sensor_type;location;lat;lon;timestamp;pressure;altitude;pressure_sealevel;temperature;humidity
80502;BME280;70023;51.190;6.808;2024-01-11T00:03:52;103047.66;;;-6.38;75.44
80502;BME280;70023;51.190;6.808;2024-01-11T00:08:53;103045.19;;;-6.41;75.91
80502;BME280;70023;51.190;6.808;2024-01-11T00:13:54;103046.97;;;-6.42;75.44
80502;BME280;70023;51.190;6.808;2024-01-11T00:18:55;103042.84;;;-6.47;76.07
80502;BME280;70023;51.190;6.808;2024-01-11T00:23:56;103044.69;;;-6.51;75.29
80502;BME280;70023;51.190;6.808;2024-01-11T00:28:57;103051.63;;;-6.51;75.83
80502;BME280;70023;51.190;6.808;2024-01-11T00:33:58;103054.38;;;-6.54;75.80
80502;BME280;70023;51.190;6.808;2024-01-11T00:38:59;103059.59;;;-6.56;76.08
80502;BME280;70023;51.190;6.808;2024-01-11T00:44:00;103044.16;;;-6.59;75.26
80502;BME280;70023;51.190;6.808;2024-01-11T00:49:01;103057.28;;;-6.63;75.61
80502;BME280;70023;51.190;6.808;2024-01-11T00:54:02;103052.16;;;-6.65;75.82
80502;BME280;70023;51.190;6.808;2024-01-11T00:59:03;103044.47;;;-6.68;75.70
80502;BME280;70023;51.190;6.808;2024-01-11T01:04:04;103037.78;;;-6.73;76.05
80502;BME280;70023;51.190;6.808;2024-01-11T01:09:05;103040.50;;;-6.78;75.57
80502;BME280;70023;51.190;6.808;2024-01-11T01:14:06;103046.56;;;-6.78;75.75
80502;BME280;70023;51.190;6.808;2024-01-11T01:19:07;103049.34;;;-6.82;75.78
80502;BME280;70023;51.190;6.808;2024-01-11T01:24:08;103046.81;;;-6.84;75.68
80502;BME280;70023;51.190;6.808;2024-01-11T01:29:09;103049.56;;;-6.88;75.57
80502;BME280;70023;51.190;6.808;2024-01-11T01:34:10;103043.56;;;-6.90;75.68
80502;BME280;70023;51.190;6.808;2024-01-11T01:39:11;103042.84;;;-6.94;75.00
80502;BME280;70023;51.190;6.808;2024-01-11T01:44:13;103047.25;;;-6.96;76.02
80502;BME280;70023;51.190;6.808;2024-01-11T01:49:14;103054.28;;;-6.99;75.84
80502;BME280;70023;51.190;6.808;2024-01-11T01:54:18;103065.59;;;-7.00;75.57
80502;BME280;70023;51.190;6.808;2024-01-11T01:59:19;103069.97;;;-7.02;75.62
80502;BME280;70023;51.190;6.808;2024-01-11T02:04:22;103066.66;;;-7.06;75.75
80502;BME280;70023;51.190;6.808;2024-01-11T02:09:24;103075.31;;;-7.07;75.73
80502;BME280;70023;51.190;6.808;2024-01-11T02:14:25;103072.78;;;-7.08;75.74
80502;BME280;70023;51.190;6.808;2024-01-11T02:19:27;103065.09;;;-7.11;75.70
80502;BME280;70023;51.190;6.808;2024-01-11T02:24:28;103068.66;;;-7.14;75.63
80502;BME280;70023;51.190;6.808;2024-01-11T02:29:29;103068.75;;;-7.17;75.78
80502;BME280;70023;51.190;6.808;2024-01-11T02:34:31;103065.38;;;-7.19;75.62
80502;BME280;70023;51.190;6.808;2024-01-11T02:39:32;103068.97;;;-7.23;75.78
80502;BME280;70023;51.190;6.808;2024-01-11T02:44:33;103081.16;;;-7.25;76.08
80502;BME280;70023;51.190;6.808;2024-01-11T02:49:35;103074.34;;;-7.27;75.89
80502;BME280;70023;51.190;6.808;2024-01-11T02:54:36;103064.06;;;-7.30;75.20
80502;BME280;70023;51.190;6.808;2024-01-11T02:59:37;103081.59;;;-7.37;75.63
80502;BME280;70023;51.190;6.808;2024-01-11T03:04:39;103070.34;;;-7.37;75.30
80502;BME280;70023;51.190;6.808;2024-01-11T03:09:40;103055.81;;;-7.42;75.69
80502;BME280;70023;51.190;6.808;2024-01-11T03:14:41;103061.88;;;-7.43;75.69
80502;BME280;70023;51.190;6.808;2024-01-11T03:19:42;103049.00;;;-7.46;75.84
80502;BME280;70023;51.190;6.808;2024-01-11T03:24:46;103059.53;;;-7.50;76.09
80502;BME280;70023;51.190;6.808;2024-01-11T03:29:47;103062.22;;;-7.53;75.62
80502;BME280;70023;51.190;6.808;2024-01-11T03:34:49;103064.03;;;-7.55;75.46
80502;BME280;70023;51.190;6.808;2024-01-11T03:39:50;103060.72;;;-7.59;75.99
80502;BME280;70023;51.190;6.808;2024-01-11T03:44:51;103064.28;;;-7.63;75.34
80502;BME280;70023;51.190;6.808;2024-01-11T03:49:52;103062.63;;;-7.65;75.74
80502;BME280;70023;51.190;6.808;2024-01-11T03:54:53;103076.50;;;-7.66;75.24
80502;BME280;70023;51.190;6.808;2024-01-11T03:59:54;103072.28;;;-7.69;75.76
80502;BME280;70023;51.190;6.808;2024-01-11T04:04:55;103076.66;;;-7.71;75.11
80502;BME280;70023;51.190;6.808;2024-01-11T04:09:56;103059.41;;;-7.72;75.18
80502;BME280;70023;51.190;6.808;2024-01-11T04:14:57;103082.72;;;-7.70;75.43
80502;BME280;70023;51.190;6.808;2024-01-11T04:20:01;103084.53;;;-7.74;76.19
80502;BME280;70023;51.190;6.808;2024-01-11T04:25:03;103096.72;;;-7.76;75.58
80502;BME280;70023;51.190;6.808;2024-01-11T04:30:04;103092.41;;;-7.77;75.98
80502;BME280;70023;51.190;6.808;2024-01-11T04:35:06;103101.91;;;-7.77;75.97
80502;BME280;70023;51.190;6.808;2024-01-11T04:40:07;103089.91;;;-7.80;75.58
80502;BME280;70023;51.190;6.808;2024-01-11T04:45:09;103111.56;;;-7.81;75.77
80502;BME280;70023;51.190;6.808;2024-01-11T04:50:10;103098.59;;;-7.81;76.11
80502;BME280;70023;51.190;6.808;2024-01-11T04:55:11;103104.66;;;-7.82;75.46
80502;BME280;70023;51.190;6.808;2024-01-11T05:00:12;103106.31;;;-7.79;75.74
80502;BME280;70023;51.190;6.808;2024-01-11T05:05:13;103114.09;;;-7.79;75.54
80502;BME280;70023;51.190;6.808;2024-01-11T05:10:14;103110.72;;;-7.81;75.97
80502;BME280;70023;51.190;6.808;2024-01-11T05:15:16;103098.59;;;-7.81;75.54
80502;BME280;70023;51.190;6.808;2024-01-11T05:20:17;103102.94;;;-7.81;75.92
80502;BME280;70023;51.190;6.808;2024-01-11T05:25:18;103114.09;;;-7.79;75.55
80502;BME280;70023;51.190;6.808;2024-01-11T05:30:19;103127.13;;;-7.81;75.86
80502;BME280;70023;51.190;6.808;2024-01-11T05:35:20;103125.38;;;-7.80;75.49
80502;BME280;70023;51.190;6.808;2024-01-11T05:40:23;103128.78;;;-7.80;75.52
80502;BME280;70023;51.190;6.808;2024-01-11T05:45:24;103135.78;;;-7.82;75.46
80502;BME280;70023;51.190;6.808;2024-01-11T05:50:25;103128.94;;;-7.84;75.04
80502;BME280;70023;51.190;6.808;2024-01-11T05:55:26;103144.47;;;-7.83;75.50
80502;BME280;70023;51.190;6.808;2024-01-11T06:00:28;103148.88;;;-7.86;76.01
80502;BME280;70023;51.190;6.808;2024-01-11T06:05:29;103161.13;;;-7.91;75.78
80502;BME280;70023;51.190;6.808;2024-01-11T06:10:30;103175.75;;;-7.89;75.10
80502;BME280;70023;51.190;6.808;2024-01-11T06:15:31;103174.88;;;-7.88;nan
80502;BME280;70023;51.190;6.808;2024-01-11T06:20:32;103165.28;;;-7.86;75.71
80502;BME280;70023;51.190;6.808;2024-01-11T06:25:33;103167.03;;;-7.86;75.82
80502;BME280;70023;51.190;6.808;2024-01-11T06:30:34;103167.88;;;-7.86;74.59
80502;BME280;70023;51.190;6.808;2024-01-11T06:35:35;103160.03;;;-7.84;75.77
80502;BME280;70023;51.190;6.808;2024-01-11T06:40:36;103159.09;;;-7.82;75.11
80502;BME280;70023;51.190;6.808;2024-01-11T06:45:38;103161.69;;;-7.82;75.14
80502;BME280;70023;51.190;6.808;2024-01-11T06:50:39;103166.88;;;-7.80;75.60
80502;BME280;70023;51.190;6.808;2024-01-11T06:55:40;103153.97;;;-7.83;75.82
80502;BME280;70023;51.190;6.808;2024-01-11T07:00:42;103158.31;;;-7.84;75.01
80502;BME280;70023;51.190;6.808;2024-01-11T07:05:43;103166.00;;;-7.81;75.52
80502;BME280;70023;51.190;6.808;2024-01-11T07:10:44;103173.78;;;-7.81;75.54
80502;BME280;70023;51.190;6.808;2024-01-11T07:15:45;103178.13;;;-7.81;75.31
80502;BME280;70023;51.190;6.808;2024-01-11T07:20:48;103192.78;;;-7.80;74.95
80502;BME280;70023;51.190;6.808;2024-01-11T07:25:50;103185.00;;;-7.80;75.10
80502;BME280;70023;51.190;6.808;2024-01-11T07:30:52;103189.28;;;-7.79;76.03
80502;BME280;70023;51.190;6.808;2024-01-11T07:35:53;103207.44;;;-7.79;74.94
80502;BME280;70023;51.190;6.808;2024-01-11T07:40:55;103210.03;;;-7.79;75.06
80502;BME280;70023;51.190;6.808;2024-01-11T07:45:56;103218.59;;;-7.77;75.11
80502;BME280;70023;51.190;6.808;2024-01-11T07:50:57;103226.34;;;-7.76;74.83
80502;BME280;70023;51.190;6.808;2024-01-11T07:55:59;103221.16;;;-7.76;75.45
80502;BME280;70023;51.190;6.808;2024-01-11T08:01:01;103212.53;;;-7.76;75.24
80502;BME280;70023;51.190;6.808;2024-01-11T08:06:02;103221.16;;;-7.76;75.08
80502;BME280;70023;51.190;6.808;2024-01-11T08:11:03;103215.97;;;-7.76;74.32
80502;BME280;70023;51.190;6.808;2024-01-11T08:16:05;103213.19;;;-7.70;74.82
80502;BME280;70023;51.190;6.808;2024-01-11T08:21:09;103203.66;;;-7.69;74.59
80502;BME280;70023;51.190;6.808;2024-01-11T08:26:11;103213.88;;;-7.63;75.55
80502;BME280;70023;51.190;6.808;2024-01-11T08:31:13;103204.19;;;-7.58;74.86
80502;BME280;70023;51.190;6.808;2024-01-11T08:36:14;103216.81;;;-7.48;74.95
80502;BME280;70023;51.190;6.808;2024-01-11T08:41:16;103203.56;;;-7.38;75.12
80502;BME280;70023;51.190;6.808;2024-01-11T08:46:24;103212.75;;;-7.28;75.38
80502;BME280;70023;51.190;6.808;2024-01-11T08:51:25;103212.56;;;-7.22;74.66
80502;BME280;70023;51.190;6.808;2024-01-11T08:56:26;103214.84;;;-7.13;74.63
80502;BME280;70023;51.190;6.808;2024-01-11T09:01:28;103217.94;;;-7.02;74.56
80502;BME280;70023;51.190;6.808;2024-01-11T09:06:29;103231.44;;;-6.91;74.32
80502;BME280;70023;51.190;6.808;2024-01-11T09:11:30;103233.69;;;-6.81;74.33
80502;BME280;70023;51.190;6.808;2024-01-11T09:16:32;103233.97;;;-6.65;74.24
80502;BME280;70023;51.190;6.808;2024-01-11T09:21:33;103249.50;;;-6.39;73.71
80502;BME280;70023;51.190;6.808;2024-01-11T09:26:34;103261.72;;;-6.16;74.37
80502;BME280;70023;51.190;6.808;2024-01-11T09:31:36;103253.00;;;-5.92;74.37
80502;BME280;70023;51.190;6.808;2024-01-11T09:36:37;103259.78;;;-5.66;73.54
80502;BME280;70023;51.190;6.808;2024-01-11T09:41:42;103261.28;;;-5.38;72.85
80502;BME280;70023;51.190;6.808;2024-01-11T09:46:52;103256.63;;;-5.08;72.88
80502;BME280;70023;51.190;6.808;2024-01-11T09:51:54;103271.91;;;-4.79;72.97
80502;BME280;70023;51.190;6.808;2024-01-11T09:56:58;103257.59;;;-4.48;73.64
80502;BME280;70023;51.190;6.808;2024-01-11T10:02:00;103263.22;;;-4.19;72.24
80502;BME280;70023;51.190;6.808;2024-01-11T10:07:03;103254.06;;;-3.88;72.61
80502;BME280;70023;51.190;6.808;2024-01-11T10:12:06;103266.53;;;-3.58;73.14
80502;BME280;70023;51.190;6.808;2024-01-11T10:17:09;103278.19;;;-3.27;72.43
80502;BME280;70023;51.190;6.808;2024-01-11T10:22:10;103267.25;;;-3.00;72.46
80502;BME280;70023;51.190;6.808;2024-01-11T10:27:17;103267.50;;;-2.70;72.39
80502;BME280;70023;51.190;6.808;2024-01-11T10:32:18;103270.50;;;-2.43;72.38
80502;BME280;70023;51.190;6.808;2024-01-11T10:37:19;103254.28;;;-2.17;72.23
80502;BME280;70023;51.190;6.808;2024-01-11T10:42:22;103273.03;;;-1.92;71.86
80502;BME280;70023;51.190;6.808;2024-01-11T10:47:27;103259.53;;;-1.69;71.32
80502;BME280;70023;51.190;6.808;2024-01-11T10:52:33;103259.16;;;-1.46;71.65
80502;BME280;70023;51.190;6.808;2024-01-11T10:57:40;103271.69;;;-1.21;71.02
80502;BME280;70023;51.190;6.808;2024-01-11T11:02:42;103274.81;;;-0.99;71.46
80502;BME280;70023;51.190;6.808;2024-01-11T11:07:43;103279.00;;;-0.81;70.93
80502;BME280;70023;51.190;6.808;2024-01-11T11:12:45;103265.84;;;-0.65;70.92
80502;BME280;70023;51.190;6.808;2024-01-11T11:17:47;103250.16;;;-0.51;70.71
80502;BME280;70023;51.190;6.808;2024-01-11T11:23:03;103251.78;;;-0.34;70.62
80502;BME280;70023;51.190;6.808;2024-01-11T11:28:07;103250.94;;;-0.21;71.00
80502;BME280;70023;51.190;6.808;2024-01-11T11:33:16;103245.88;;;-0.10;70.58
80502;BME280;70023;51.190;6.808;2024-01-11T11:38:36;103260.97;;;0.01;70.84
80502;BME280;70023;51.190;6.808;2024-01-11T11:43:38;103242.97;;;0.09;71.33
80502;BME280;70023;51.190;6.808;2024-01-11T11:53:41;103242.41;;;0.18;71.36
80502;BME280;70023;51.190;6.808;2024-01-11T11:58:44;103234.22;;;0.23;71.10
80502;BME280;70023;51.190;6.808;2024-01-11T12:03:46;103240.31;;;0.23;70.79
80502;BME280;70023;51.190;6.808;2024-01-11T12:08:51;103225.41;;;0.24;71.24
80502;BME280;70023;51.190;6.808;2024-01-11T12:13:53;103213.03;;;0.26;71.06
80502;BME280;70023;51.190;6.808;2024-01-11T12:18:56;103204.19;;;0.27;70.44
80502;BME280;70023;51.190;6.808;2024-01-11T12:23:57;103192.84;;;0.26;71.33
80502;BME280;70023;51.190;6.808;2024-01-11T12:28:58;103192.13;;;0.24;70.82
80502;BME280;70023;51.190;6.808;2024-01-11T12:33:59;103195.78;;;0.22;71.77
80502;BME280;70023;51.190;6.808;2024-01-11T12:39:00;103187.97;;;0.20;71.49
80502;BME280;70023;51.190;6.808;2024-01-11T12:44:04;103189.13;;;0.16;70.97
80502;BME280;70023;51.190;6.808;2024-01-11T12:49:05;103202.53;;;0.12;71.25
80502;BME280;70023;51.190;6.808;2024-01-11T12:54:12;103213.97;;;0.11;71.17
80502;BME280;70023;51.190;6.808;2024-01-11T12:59:14;103217.06;;;0.03;71.76
80502;BME280;70023;51.190;6.808;2024-01-11T13:04:16;103206.00;;;-0.02;70.69
80502;BME280;70023;51.190;6.808;2024-01-11T13:09:18;103203.59;;;-0.05;70.80
80502;BME280;70023;51.190;6.808;2024-01-11T13:14:19;103210.50;;;-0.04;71.20
80502;BME280;70023;51.190;6.808;2024-01-11T13:19:20;103220.38;;;-0.08;70.98
80502;BME280;70023;51.190;6.808;2024-01-11T13:24:21;103214.28;;;-0.08;71.02
80502;BME280;70023;51.190;6.808;2024-01-11T13:29:22;103203.97;;;-0.11;71.48
80502;BME280;70023;51.190;6.808;2024-01-11T13:34:23;103209.38;;;-0.14;70.87
80502;BME280;70023;51.190;6.808;2024-01-11T13:39:24;103200.78;;;-0.16;71.56
80502;BME280;70023;51.190;6.808;2024-01-11T13:44:25;103202.66;;;-0.18;71.47
80502;BME280;70023;51.190;6.808;2024-01-11T13:49:26;103208.06;;;-0.21;71.34
80502;BME280;70023;51.190;6.808;2024-01-11T13:54:30;103221.22;;;-0.21;70.96
80502;BME280;70023;51.190;6.808;2024-01-11T13:59:31;103213.50;;;-0.24;71.61
80502;BME280;70023;51.190;6.808;2024-01-11T14:04:33;103208.47;;;-0.27;71.15
80502;BME280;70023;51.190;6.808;2024-01-11T14:09:34;103206.13;;;-0.32;71.37
80502;BME280;70023;51.190;6.808;2024-01-11T14:14:35;103207.16;;;-0.34;72.00
80502;BME280;70023;51.190;6.808;2024-01-11T14:19:36;103204.59;;;-0.36;72.21
80502;BME280;70023;51.190;6.808;2024-01-11T14:24:37;103203.84;;;-0.38;71.07
80502;BME280;70023;51.190;6.808;2024-01-11T14:29:38;103191.59;;;-0.37;71.42
80502;BME280;70023;51.190;6.808;2024-01-11T14:34:40;103196.84;;;-0.37;71.74
80502;BME280;70023;51.190;6.808;2024-01-11T14:39:41;103197.47;;;-0.34;71.97
80502;BME280;70023;51.190;6.808;2024-01-11T14:44:42;103204.44;;;-0.33;71.10
80502;BME280;70023;51.190;6.808;2024-01-11T14:49:43;103216.53;;;-0.30;71.95
80502;BME280;70023;51.190;6.808;2024-01-11T14:54:45;103211.28;;;-0.30;71.81
80502;BME280;70023;51.190;6.808;2024-01-11T14:59:49;103225.31;;;-0.31;72.25
80502;BME280;70023;51.190;6.808;2024-01-11T15:04:50;103207.91;;;-0.32;71.70
80502;BME280;70023;51.190;6.808;2024-01-11T15:09:51;103217.66;;;-0.34;70.87
80502;BME280;70023;51.190;6.808;2024-01-11T15:14:53;103197.75;;;-0.38;71.93
80502;BME280;70023;51.190;6.808;2024-01-11T15:19:54;103204.25;;;-0.44;71.02
80502;BME280;70023;51.190;6.808;2024-01-11T15:24:55;103215.00;;;-0.48;72.05
80502;BME280;70023;51.190;6.808;2024-01-11T15:29:56;103216.88;;;-0.50;71.50
80502;BME280;70023;51.190;6.808;2024-01-11T15:34:57;103226.78;;;-0.55;71.97
80502;BME280;70023;51.190;6.808;2024-01-11T15:39:58;103221.91;;;-0.61;71.37
80502;BME280;70023;51.190;6.808;2024-01-11T15:45:00;103235.22;;;-0.64;72.84
80502;BME280;70023;51.190;6.808;2024-01-11T15:50:06;103244.22;;;-0.69;71.99
80502;BME280;70023;51.190;6.808;2024-01-11T15:55:08;103275.84;;;-0.72;72.38
80502;BME280;70023;51.190;6.808;2024-01-11T16:00:10;103280.53;;;-0.77;73.02
80502;BME280;70023;51.190;6.808;2024-01-11T16:05:11;103270.28;;;-0.81;71.69
80502;BME280;70023;51.190;6.808;2024-01-11T16:10:12;103281.13;;;-0.87;72.58
80502;BME280;70023;51.190;6.808;2024-01-11T16:15:13;103279.72;;;-0.93;72.08
80502;BME280;70023;51.190;6.808;2024-01-11T16:20:16;103285.88;;;-0.94;71.96
80502;BME280;70023;51.190;6.808;2024-01-11T16:25:17;103284.44;;;-0.99;72.15
80502;BME280;70023;51.190;6.808;2024-01-11T16:30:19;103290.91;;;-1.05;73.47
80502;BME280;70023;51.190;6.808;2024-01-11T16:35:21;103265.00;;;-1.11;73.00
80502;BME280;70023;51.190;6.808;2024-01-11T16:40:22;103269.50;;;-1.13;73.03
80502;BME280;70023;51.190;6.808;2024-01-11T16:45:27;103279.34;;;-1.16;72.99
80502;BME280;70023;51.190;6.808;2024-01-11T16:50:28;103275.44;;;-1.25;72.88
80502;BME280;70023;51.190;6.808;2024-01-11T16:55:29;103272.38;;;-1.33;73.61
80502;BME280;70023;51.190;6.808;2024-01-11T17:00:31;103279.84;;;-1.41;73.14
80502;BME280;70023;51.190;6.808;2024-01-11T17:05:36;103272.16;;;-1.44;74.33
80502;BME280;70023;51.190;6.808;2024-01-11T17:10:40;103278.66;;;-1.51;73.87
80502;BME280;70023;51.190;6.808;2024-01-11T17:15:41;103289.53;;;-1.59;73.71
80502;BME280;70023;51.190;6.808;2024-01-11T17:20:42;103276.59;;;-1.62;74.09
80502;BME280;70023;51.190;6.808;2024-01-11T17:25:43;103282.09;;;-1.66;73.73
80502;BME280;70023;51.190;6.808;2024-01-11T17:30:44;103278.88;;;-1.71;74.38
80502;BME280;70023;51.190;6.808;2024-01-11T17:35:46;103271.03;;;-1.71;73.95
80502;BME280;70023;51.190;6.808;2024-01-11T17:40:48;103290.09;;;-1.69;74.12
80502;BME280;70023;51.190;6.808;2024-01-11T17:45:49;103282.09;;;-1.66;74.06
80502;BME280;70023;51.190;6.808;2024-01-11T17:50:51;103277.13;;;-1.55;73.70
80502;BME280;70023;51.190;6.808;2024-01-11T17:55:52;103273.41;;;-1.51;73.77
80502;BME280;70023;51.190;6.808;2024-01-11T18:00:53;103288.97;;;-1.48;73.34
80502;BME280;70023;51.190;6.808;2024-01-11T18:05:54;103283.72;;;-1.48;73.93
80502;BME280;70023;51.190;6.808;2024-01-11T18:10:55;103274.75;;;-1.44;73.91
80502;BME280;70023;51.190;6.808;2024-01-11T18:15:56;103272.91;;;-1.42;73.23
80502;BME280;70023;51.190;6.808;2024-01-11T18:20:57;103264.78;;;-1.38;73.35
80502;BME280;70023;51.190;6.808;2024-01-11T18:25:58;103242.91;;;-1.37;73.38
80502;BME280;70023;51.190;6.808;2024-01-11T18:30:59;103231.41;;;-1.34;73.41
80502;BME280;70023;51.190;6.808;2024-01-11T18:36:01;103243.56;;;-1.33;73.25
80502;BME280;70023;51.190;6.808;2024-01-11T18:41:03;103257.44;;;-1.31;73.29
80502;BME280;70023;51.190;6.808;2024-01-11T18:46:05;103266.06;;;-1.29;74.09
80502;BME280;70023;51.190;6.808;2024-01-11T18:51:06;103276.38;;;-1.26;73.80
80502;BME280;70023;51.190;6.808;2024-01-11T18:56:14;103270.09;;;-1.23;73.32
80502;BME280;70023;51.190;6.808;2024-01-11T19:01:18;103290.91;;;-1.20;73.94
80502;BME280;70023;51.190;6.808;2024-01-11T19:06:25;103293.47;;;-1.19;73.34
80502;BME280;70023;51.190;6.808;2024-01-11T19:11:26;103291.59;;;-1.17;72.97
80502;BME280;70023;51.190;6.808;2024-01-11T19:16:27;103294.97;;;-1.15;73.83
80502;BME280;70023;51.190;6.808;2024-01-11T19:21:28;103277.38;;;-1.13;73.29
80502;BME280;70023;51.190;6.808;2024-01-11T19:26:32;103278.97;;;-1.10;73.06
80502;BME280;70023;51.190;6.808;2024-01-11T19:31:33;103282.44;;;-1.10;72.91
80502;BME280;70023;51.190;6.808;2024-01-11T19:36:40;103290.16;;;-1.07;73.77
80502;BME280;70023;51.190;6.808;2024-01-11T19:41:42;103286.56;;;-1.06;73.30
80502;BME280;70023;51.190;6.808;2024-01-11T19:46:43;103287.31;;;-1.04;73.29
80502;BME280;70023;51.190;6.808;2024-01-11T19:51:44;103278.44;;;-1.01;74.13
80502;BME280;70023;51.190;6.808;2024-01-11T19:56:45;103292.31;;;-0.99;74.10
80502;BME280;70023;51.190;6.808;2024-01-11T20:01:46;103284.38;;;-0.98;74.16
80502;BME280;70023;51.190;6.808;2024-01-11T20:06:47;103289.53;;;-0.96;73.36
80502;BME280;70023;51.190;6.808;2024-01-11T20:11:49;103296.38;;;-0.94;73.32
80502;BME280;70023;51.190;6.808;2024-01-11T20:16:51;103291.97;;;-0.93;73.32
80502;BME280;70023;51.190;6.808;2024-01-11T20:21:52;103285.81;;;-0.92;74.21
80502;BME280;70023;51.190;6.808;2024-01-11T20:26:53;103292.66;;;-0.90;73.07
80502;BME280;70023;51.190;6.808;2024-01-11T20:31:54;103306.59;;;-0.89;74.26
80502;BME280;70023;51.190;6.808;2024-01-11T20:36:57;103300.44;;;-0.88;73.18
80502;BME280;70023;51.190;6.808;2024-01-11T20:41:58;103311.78;;;-0.88;73.45
80502;BME280;70023;51.190;6.808;2024-01-11T20:46:59;103309.16;;;-0.88;72.88
80502;BME280;70023;51.190;6.808;2024-01-11T20:52:00;103315.16;;;-0.86;74.11
80502;BME280;70023;51.190;6.808;2024-01-11T20:57:02;103313.28;;;-0.84;73.29
80502;BME280;70023;51.190;6.808;2024-01-11T21:02:03;103318.53;;;-0.84;74.05
80502;BME280;70023;51.190;6.808;2024-01-11T21:07:04;103321.91;;;-0.82;73.43
80502;BME280;70023;51.190;6.808;2024-01-11T21:12:06;103320.13;;;-0.81;73.95
80502;BME280;70023;51.190;6.808;2024-01-11T21:17:07;103318.34;;;-0.81;73.09
80502;BME280;70023;51.190;6.808;2024-01-11T21:22:08;103327.91;;;-0.80;73.48
80502;BME280;70023;51.190;6.808;2024-01-11T21:27:09;103329.69;;;-0.80;73.43
80502;BME280;70023;51.190;6.808;2024-01-11T21:32:10;103329.59;;;-0.79;74.70
80502;BME280;70023;51.190;6.808;2024-01-11T21:37:13;103326.13;;;-0.79;74.12
80502;BME280;70023;51.190;6.808;2024-01-11T21:42:15;103318.19;;;-0.78;73.53
80502;BME280;70023;51.190;6.808;2024-01-11T21:47:16;103320.72;;;-0.76;73.54
80502;BME280;70023;51.190;6.808;2024-01-11T21:52:17;103314.63;;;-0.77;73.54
80502;BME280;70023;51.190;6.808;2024-01-11T21:57:18;103316.31;;;-0.76;73.88
80502;BME280;70023;51.190;6.808;2024-01-11T22:02:19;103317.25;;;-0.77;73.78
80502;BME280;70023;51.190;6.808;2024-01-11T22:07:20;103312.84;;;-0.76;74.26
80502;BME280;70023;51.190;6.808;2024-01-11T22:12:21;103319.00;;;-0.77;74.79
80502;BME280;70023;51.190;6.808;2024-01-11T22:17:22;103319.75;;;-0.75;74.69
80502;BME280;70023;51.190;6.808;2024-01-11T22:22:23;103322.38;;;-0.75;73.83
80502;BME280;70023;51.190;6.808;2024-01-11T22:27:24;103318.00;;;-0.75;74.55
80502;BME280;70023;51.190;6.808;2024-01-11T22:32:27;103324.94;;;-0.74;74.74
80502;BME280;70023;51.190;6.808;2024-01-11T22:37:28;103323.16;;;-0.73;74.35
80502;BME280;70023;51.190;6.808;2024-01-11T22:42:29;103323.16;;;-0.73;73.99
80502;BME280;70023;51.190;6.808;2024-01-11T22:47:31;103312.75;;;-0.75;73.57
80502;BME280;70023;51.190;6.808;2024-01-11T22:52:32;103303.84;;;-0.72;73.80
80502;BME280;70023;51.190;6.808;2024-01-11T22:57:33;103311.72;;;-0.72;74.54
80502;BME280;70023;51.190;6.808;2024-01-11T23:02:34;103303.78;;;-0.71;74.23
80502;BME280;70023;51.190;6.808;2024-01-11T23:07:35;103301.16;;;-0.71;74.81
80502;BME280;70023;51.190;6.808;2024-01-11T23:12:45;103289.81;;;-0.71;74.70
80502;BME280;70023;51.190;6.808;2024-01-11T23:17:46;103288.81;;;-0.69;73.79
80502;BME280;70023;51.190;6.808;2024-01-11T23:22:47;103298.44;;;-0.69;74.81
80502;BME280;70023;51.190;6.808;2024-01-11T23:27:48;103316.69;;;-0.68;74.19
80502;BME280;70023;51.190;6.808;2024-01-11T23:32:49;103314.09;;;-0.68;74.08
80502;BME280;70023;51.190;6.808;2024-01-11T23:37:50;103309.69;;;-0.67;74.26
80502;BME280;70023;51.190;6.808;2024-01-11T23:42:51;103300.91;;;-0.66;73.93
80502;BME280;70023;51.190;6.808;2024-01-11T23:47:53;103312.25;;;-0.65;74.99
80502;BME280;70023;51.190;6.808;2024-01-11T23:52:54;103310.44;;;-0.65;74.69
80502;BME280;70023;51.190;6.808;2024-01-11T23:57:55;103312.03;;;-0.62;74.19
